Kota Kinabalu International Airport
WBKK : now visible

Airfield :











YOU CAN JOIN US ON...

 
LOGIN :

Register | Disclaimer

   EN    FR    IT 

 









Legend :    VFR   Marginal VFR   IFR   Intensive IFR   Very Intensive IFR
Visi :
Ceiling :
>= 8 km
>= 3000ft
5 to 8 km
1000 to 3000 ft
1500m to 5 km
500 to 1000 ft
800 to 1500m
200 to 500 ft
< 800m
< 200 ft
Symbols :   Thunderstorms  Fog  Heavy snow  Heavy precipitations  Wind > 20 kt






- Airport Elevation : 10 ft
- IATA code : BKI


WBKK - Kota Kinabalu International

CURRENT METAR :
  • 230930Z VRB03KT 9000 -TSRA FEW013 FEW016CB SCT035 30/28 Q1005 TEMPO 6000 -TSRA

EXPIRED METARs :
  • 230900Z VRB03KT 9999 -TSRA FEW013 FEW016CB 31/27 Q1004 TEMPO 5000 TSRA
  • 230848Z VRB04KT 9999 -TSRA FEW013 FEW016CB 32/27 Q1005 TEMPO 6000 -TSRA
  • 230830Z VRB05KT 9999 FEW014 FEW016CB 33/27 Q1004 NOSIG
  • 230800Z 32006KT 240V050 9999 FEW014 FEW016CB 34/27 Q1004 NOSIG
  • 230730Z VRB05KT 9999 FEW014 FEW016CB 34/28 Q1004 NOSIG
  • 230700Z VRB04KT 9999 FEW014 FEW016CB 34/28 Q1004 NOSIG
  • 230630Z VRB04KT 9999 FEW014 35/28 Q1005 NOSIG
  • 230600Z VRB05KT 9999 FEW014 34/28 Q1005 NOSIG
  • 230530Z VRB05KT 9999 FEW014 34/28 Q1006 NOSIG
  • 230500Z VRB05KT 9999 FEW014 34/27 Q1006 NOSIG

TAF AMD TAF WBKK
Valid from the 23 at 08:00 until the 24 at 06:00 UTC


230849Z 2308/2406 VRB03KT 9999 FEW014
TEMPO 2309/2311 5000 TSRA FEW013 FEW016CB SCT030
BECMG 2312/2314 12005KT
WBFC FIR / Asia



MET'MAP, your aeronautical weather chart ! - Copyright ORBIFLY December 2007 - Disclaimer

ORBIFLY MET'MAP TEAM :

Programming & Development : Alexandra Zaïnal
Original concept : Baudouin d'Aumeries
Technical & hardware support : Manuel Goepfert
Assistance : Marc-Olivier Méhu




SOURCES & CREDITS :

   NOAA       Earth
Advisory